createdAt,value
2019-04-03T00:00:42.590Z,99220.45
2019-04-03T00:03:16.151Z,99208.87
2019-04-03T00:05:49.958Z,99200.45
2019-04-03T00:08:23.502Z,99204.56
2019-04-03T00:10:57.140Z,99196.92
2019-04-03T00:13:32.273Z,99189.62
2019-04-03T00:16:06.048Z,99194.00
2019-04-03T00:18:40.745Z,99183.97
2019-04-03T00:21:15.727Z,99189.45
2019-04-03T00:23:49.414Z,99182.90
2019-04-03T00:26:22.955Z,99180.97
2019-04-03T00:28:56.286Z,99175.49
2019-04-03T00:31:30.086Z,99173.58
2019-04-03T00:34:04.392Z,99169.19
2019-04-03T00:36:38.240Z,99168.33
2019-04-03T00:39:11.712Z,99185.91
2019-04-03T00:41:45.436Z,99169.57
2019-04-03T00:44:20.989Z,99167.75
2019-04-03T00:46:56.912Z,99159.72
2019-04-03T00:49:32.633Z,99161.74
2019-04-03T00:52:46.809Z,99157.02
2019-04-03T00:55:20.535Z,99148.64
2019-04-03T00:57:56.071Z,99143.70
2019-04-03T01:00:30.524Z,99155.73
2019-04-03T01:03:04.219Z,99134.16
2019-04-03T01:05:37.891Z,99143.45
2019-04-03T01:08:11.508Z,99132.48
2019-04-03T01:10:45.099Z,99131.22
2019-04-03T01:13:19.577Z,99131.90
2019-04-03T01:15:53.235Z,99122.13
2019-04-03T01:18:29.976Z,99129.81
2019-04-03T01:21:06.007Z,99110.77
2019-04-03T01:23:40.260Z,99121.52
2019-04-03T01:26:13.542Z,99133.80
2019-04-03T01:28:48.283Z,99121.31
2019-04-03T01:31:21.645Z,99114.20
2019-04-03T01:33:55.393Z,99105.98
2019-04-03T01:36:32.137Z,99097.17
2019-04-03T01:39:06.686Z,99100.50
2019-04-03T01:41:40.271Z,99105.56
2019-04-03T01:44:13.865Z,99115.47
2019-04-03T01:46:48.787Z,99093.60
2019-04-03T01:49:22.277Z,99097.22
2019-04-03T01:51:55.762Z,99101.17
2019-04-03T01:54:29.090Z,99092.25
2019-04-03T01:57:02.883Z,99092.98
2019-04-03T01:59:37.574Z,99094.52
2019-04-03T02:02:11.328Z,99083.31
2019-04-03T02:04:46.455Z,99070.91
2019-04-03T02:07:19.815Z,99062.40
2019-04-03T02:09:53.335Z,99062.19
2019-04-03T02:12:27.022Z,99066.39
2019-04-03T02:15:00.886Z,99055.20
2019-04-03T02:17:34.627Z,99052.16
2019-04-03T02:20:08.293Z,99051.59
2019-04-03T02:22:41.696Z,99041.05
2019-04-03T02:25:15.497Z,99035.60
2019-04-03T02:27:49.053Z,99036.86
2019-04-03T02:30:22.758Z,99032.42
2019-04-03T02:32:57.344Z,99025.98
2019-04-03T02:35:31.366Z,99031.24
2019-04-03T02:38:04.835Z,99016.38
2019-04-03T02:40:40.606Z,99016.63
2019-04-03T02:43:15.444Z,99003.23
2019-04-03T02:45:49.168Z,99001.58
2019-04-03T02:48:22.944Z,99003.11
2019-04-03T02:50:58.446Z,98997.46
2019-04-03T02:53:33.115Z,98998.47
2019-04-03T02:56:11.631Z,98997.97
2019-04-03T02:58:42.759Z,98982.61
2019-04-03T03:01:16.489Z,98979.07
2019-04-03T03:03:50.758Z,98979.23
2019-04-03T03:06:25.164Z,98978.13
2019-04-03T03:08:59.866Z,98959.44
2019-04-03T03:11:33.932Z,98967.31
2019-04-03T03:14:08.998Z,98959.41
2019-04-03T03:16:42.866Z,98968.48
2019-04-03T03:19:17.527Z,98951.62
2019-04-03T03:21:54.372Z,98942.23
2019-04-03T03:24:30.046Z,98945.89
2019-04-03T03:27:06.127Z,98939.20
2019-04-03T03:29:39.570Z,98942.13
2019-04-03T03:32:19.916Z,98929.41
2019-04-03T03:34:57.380Z,98924.41
2019-04-03T03:37:23.210Z,98921.48
2019-04-03T03:39:58.809Z,98915.61
2019-04-03T03:42:34.213Z,98907.62
2019-04-03T03:45:11.122Z,98904.83
2019-04-03T03:47:45.746Z,98899.20
2019-04-03T03:50:24.867Z,98897.16
2019-04-03T03:53:00.415Z,98885.20
2019-04-03T03:55:36.465Z,98887.91
2019-04-03T03:58:12.145Z,98878.58
2019-04-03T04:00:51.080Z,98884.25
2019-04-03T04:03:21.608Z,98877.52
2019-04-03T04:05:56.670Z,98859.73
2019-04-03T04:08:33.144Z,98858.70
2019-04-03T04:11:07.550Z,98859.56
2019-04-03T04:13:41.150Z,98867.33
2019-04-03T04:16:15.343Z,98849.57
2019-04-03T04:18:50.180Z,98835.75
2019-04-03T04:21:24.002Z,98822.20
2019-04-03T04:23:58.637Z,98822.20
2019-04-03T04:26:32.780Z,98826.68
2019-04-03T04:29:10.170Z,98809.12
2019-04-03T04:31:43.442Z,98821.48
2019-04-03T04:34:18.835Z,98810.59
2019-04-03T04:36:55.344Z,98810.73
2019-04-03T04:39:28.461Z,98795.35
2019-04-03T04:42:04.365Z,98792.38
2019-04-03T04:44:37.127Z,98779.88
2019-04-03T04:47:10.605Z,98785.16
2019-04-03T04:49:44.473Z,98771.92
2019-04-03T04:52:18.100Z,98764.33
2019-04-03T04:54:51.770Z,98772.84
2019-04-03T04:57:25.541Z,98760.21
2019-04-03T04:59:59.059Z,98763.98
2019-04-03T05:02:33.709Z,98752.20
2019-04-03T05:05:09.239Z,98750.63
2019-04-03T05:07:43.190Z,98744.25
2019-04-03T05:10:17.986Z,98725.00
2019-04-03T05:12:51.686Z,98726.43
2019-04-03T05:15:25.093Z,98719.96
2019-04-03T05:17:59.011Z,98716.08
2019-04-03T05:20:33.053Z,98712.02
2019-04-03T05:23:06.757Z,98713.31
2019-04-03T05:25:42.655Z,98702.73
2019-04-03T05:28:18.203Z,98690.41
2019-04-03T05:30:51.825Z,98695.02
2019-04-03T05:33:25.435Z,98687.06
2019-04-03T05:36:00.059Z,98678.22
2019-04-03T05:38:33.779Z,98677.73
2019-04-03T05:41:07.634Z,98677.61
2019-04-03T05:43:40.991Z,98672.33
2019-04-03T05:46:15.076Z,98664.70
2019-04-03T05:48:49.097Z,98668.53
2019-04-03T05:51:22.912Z,98658.49
2019-04-03T05:53:58.884Z,98654.67
2019-04-03T05:56:32.727Z,98652.33
2019-04-03T05:59:06.509Z,98657.73
2019-04-03T06:01:41.961Z,98651.14
2019-04-03T06:04:19.806Z,98645.64
2019-04-03T06:06:54.568Z,98638.16
2019-04-03T06:09:29.930Z,98634.01
2019-04-03T06:12:03.472Z,98615.60
2019-04-03T06:14:39.128Z,98614.44
2019-04-03T06:17:13.033Z,98613.93
2019-04-03T06:19:46.962Z,98609.32
2019-04-03T06:22:21.980Z,98618.90
2019-04-03T06:24:56.949Z,98614.44
2019-04-03T06:27:30.914Z,98606.07
2019-04-03T06:30:05.442Z,98603.61
2019-04-03T06:32:39.643Z,98579.46
2019-04-03T06:35:14.401Z,98582.70
2019-04-03T06:37:48.246Z,98591.11
2019-04-03T06:40:22.065Z,98568.84
2019-04-03T06:42:55.731Z,98567.45
2019-04-03T06:45:29.469Z,98563.33
2019-04-03T06:48:05.132Z,98565.05
2019-04-03T06:50:38.184Z,98554.20
2019-04-03T06:53:11.887Z,98566.23
2019-04-03T06:55:45.999Z,98554.66
2019-04-03T06:58:19.850Z,98538.76
2019-04-03T07:00:54.782Z,98543.27
2019-04-03T07:03:28.266Z,98541.18
2019-04-03T07:06:04.441Z,98543.18
2019-04-03T07:08:40.911Z,98524.97
2019-04-03T07:11:23.114Z,98526.64
2019-04-03T07:13:53.009Z,98509.86
2019-04-03T07:16:25.109Z,98513.01
2019-04-03T07:18:58.827Z,98526.02
2019-04-03T07:21:34.561Z,98507.91
2019-04-03T07:24:08.464Z,98507.88
2019-04-03T07:26:42.746Z,98502.23
2019-04-03T07:29:17.398Z,98501.08
2019-04-03T07:31:55.174Z,98508.83
2019-04-03T07:34:29.088Z,98504.55
2019-04-03T07:37:02.742Z,98487.50
2019-04-03T07:39:36.415Z,98486.02
2019-04-03T07:42:10.111Z,98485.75
2019-04-03T07:44:43.774Z,98485.84
2019-04-03T07:47:19.026Z,98480.15
2019-04-03T07:49:52.645Z,98463.94
2019-04-03T07:52:26.419Z,98476.83
2019-04-03T07:55:00.200Z,98459.88
2019-04-03T07:57:33.965Z,98458.40
2019-04-03T08:00:09.521Z,98460.78
2019-04-03T08:02:47.919Z,98461.92
2019-04-03T08:05:19.693Z,98456.09
2019-04-03T08:07:53.474Z,98450.22
2019-04-03T08:10:29.371Z,98442.41
2019-04-03T08:13:02.214Z,98444.55
2019-04-03T08:15:35.985Z,98439.23
2019-04-03T08:18:10.270Z,98447.38
2019-04-03T08:20:44.073Z,98448.02
2019-04-03T08:23:18.100Z,98434.66
2019-04-03T08:25:53.921Z,98436.27
2019-04-03T08:28:29.532Z,98427.91
2019-04-03T08:31:01.354Z,98426.71
2019-04-03T08:33:35.287Z,98421.61
2019-04-03T08:36:09.077Z,98424.94
2019-04-03T08:38:44.029Z,98421.03
2019-04-03T08:41:37.393Z,98413.37
2019-04-03T08:44:12.248Z,98413.31
2019-04-03T08:46:46.398Z,98407.34
2019-04-03T08:49:25.348Z,98388.05
2019-04-03T08:51:57.369Z,98394.27
2019-04-03T08:54:32.077Z,98394.61
2019-04-03T08:57:05.682Z,98391.17
2019-04-03T08:59:40.391Z,98392.91
2019-04-03T09:02:14.531Z,98381.75
2019-04-03T09:04:48.790Z,98386.81
2019-04-03T09:07:24.714Z,98384.97
2019-04-03T09:10:00.593Z,98376.81
2019-04-03T09:12:33.013Z,98388.27
2019-04-03T09:15:07.636Z,98373.34
2019-04-03T09:17:43.779Z,98369.21
2019-04-03T09:20:17.599Z,98361.02
2019-04-03T09:22:52.992Z,98382.39
2019-04-03T09:25:27.824Z,98367.09
2019-04-03T09:28:01.834Z,98346.55
2019-04-03T09:30:35.853Z,98359.90
2019-04-03T09:33:09.236Z,98362.89
2019-04-03T09:35:43.323Z,98354.94
2019-04-03T09:38:16.700Z,98361.26
2019-04-03T09:40:50.581Z,98359.53
2019-04-03T09:43:24.789Z,98360.17
2019-04-03T09:46:00.349Z,98360.17
2019-04-03T09:48:34.855Z,98349.09
2019-04-03T09:51:09.824Z,98350.97
2019-04-03T09:53:43.383Z,98351.33
2019-04-03T09:56:16.981Z,98352.32
2019-04-03T09:58:51.171Z,98351.75
2019-04-03T10:01:27.108Z,98353.32
2019-04-03T10:04:01.061Z,98344.02
2019-04-03T10:06:35.316Z,98342.55
2019-04-03T10:09:11.893Z,98335.84
2019-04-03T10:11:45.518Z,98336.86
2019-04-03T10:14:25.750Z,98338.50
2019-04-03T10:17:01.593Z,98337.81
2019-04-03T10:19:39.105Z,98333.18
2019-04-03T10:22:14.077Z,98333.39
2019-04-03T10:24:48.681Z,98329.44
2019-04-03T10:27:25.111Z,98322.57
2019-04-03T10:29:59.852Z,98327.91
2019-04-03T10:32:35.598Z,98323.07
2019-04-03T10:35:10.390Z,98318.79
2019-04-03T10:37:46.314Z,98319.48
2019-04-03T10:40:19.956Z,98319.59
2019-04-03T10:42:54.048Z,98326.72
2019-04-03T10:45:30.294Z,98327.80
2019-04-03T10:48:03.946Z,98320.53
2019-04-03T10:50:38.277Z,98328.33
2019-04-03T10:53:19.190Z,98330.48
2019-04-03T10:55:51.591Z,98327.56
2019-04-03T10:58:27.224Z,98317.38
2019-04-03T11:01:03.565Z,98332.45
2019-04-03T11:03:35.972Z,98336.73
2019-04-03T11:06:11.756Z,98342.42
2019-04-03T11:08:45.516Z,98345.05
2019-04-03T11:11:19.210Z,98343.42
2019-04-03T11:13:57.072Z,98340.06
2019-04-03T11:16:31.022Z,98335.73
2019-04-03T11:19:06.627Z,98326.55
2019-04-03T11:21:43.343Z,98349.35
2019-04-03T11:24:16.857Z,98342.55
2019-04-03T11:26:52.055Z,98342.86
2019-04-03T11:29:27.716Z,98337.42
2019-04-03T11:32:02.270Z,98353.79
2019-04-03T11:34:37.908Z,98348.63
2019-04-03T11:37:12.706Z,98351.16
2019-04-03T11:40:03.706Z,98344.52
2019-04-03T11:42:34.347Z,98361.49
2019-04-03T11:45:23.935Z,98348.98
2019-04-03T11:48:01.336Z,98358.20
2019-04-03T11:50:38.918Z,98361.63
2019-04-03T11:53:17.420Z,98361.20
2019-04-03T11:56:00.970Z,98371.62
2019-04-03T12:01:33.147Z,98367.92
2019-04-03T12:04:10.549Z,98377.87
2019-04-03T12:06:55.240Z,98381.72
2019-04-03T12:09:31.606Z,98379.63
2019-04-03T12:12:09.368Z,98390.27
2019-04-03T12:14:46.798Z,98380.66
2019-04-03T12:17:23.943Z,98386.49
2019-04-03T12:20:02.284Z,98394.97
2019-04-03T12:22:38.521Z,98395.35
2019-04-03T12:25:15.173Z,98410.18
2019-04-03T12:28:08.739Z,98404.22
2019-04-03T12:30:43.001Z,98402.68
2019-04-03T12:33:23.253Z,98400.50
2019-04-03T12:35:58.538Z,98404.53
2019-04-03T12:38:33.017Z,98399.69
2019-04-03T12:41:07.685Z,98405.05
2019-04-03T12:43:42.825Z,98394.38
2019-04-03T12:46:17.423Z,98386.71
2019-04-03T12:48:52.304Z,98394.05
2019-04-03T12:51:27.024Z,98387.75
2019-04-03T12:54:02.093Z,98396.28
2019-04-03T12:56:36.262Z,98395.63
2019-04-03T12:59:10.638Z,98394.52
2019-04-03T13:01:50.227Z,98390.94
2019-04-03T13:04:31.176Z,98390.72
2019-04-03T13:07:05.344Z,98402.30
2019-04-03T13:09:40.401Z,98391.34
2019-04-03T13:12:15.161Z,98401.25
2019-04-03T13:14:50.815Z,98393.34
2019-04-03T13:17:27.903Z,98393.09
2019-04-03T13:20:05.932Z,98397.97
2019-04-03T13:22:42.605Z,98393.11
2019-04-03T13:25:37.920Z,98397.78
2019-04-03T13:28:14.049Z,98396.06
2019-04-03T13:30:49.030Z,98396.16
2019-04-03T13:33:24.410Z,98402.87
2019-04-03T13:39:21.155Z,98412.25
2019-04-03T13:44:26.063Z,98411.69
2019-04-03T13:46:58.738Z,98415.02
2019-04-03T13:49:34.867Z,98417.52
2019-04-03T13:52:09.989Z,98421.14
2019-04-03T13:54:46.797Z,98411.27
2019-04-03T13:57:21.608Z,98416.66
2019-04-03T14:00:01.011Z,98420.56
2019-04-03T14:02:32.168Z,98416.04
2019-04-03T14:05:09.961Z,98422.45
2019-04-03T14:07:44.971Z,98424.43
2019-04-03T14:10:20.863Z,98421.62
2019-04-03T14:12:55.675Z,98417.27
2019-04-03T14:15:31.549Z,98426.40
2019-04-03T14:18:07.891Z,98424.09
2019-04-03T14:20:45.756Z,98421.17
2019-04-03T14:23:40.994Z,98428.87
2019-04-03T14:26:15.214Z,98429.42
2019-04-03T14:28:50.260Z,98429.94
2019-04-03T14:31:34.330Z,98428.48
2019-04-03T14:34:01.761Z,98435.56
2019-04-03T14:36:36.905Z,98432.27
2019-04-03T14:39:11.614Z,98448.56
2019-04-03T14:41:46.433Z,98450.75
2019-04-03T14:44:40.518Z,98449.28
2019-04-03T14:47:15.763Z,98448.98
2019-04-03T14:49:51.046Z,98444.12
2019-04-03T14:52:24.954Z,98458.95
2019-04-03T14:55:14.790Z,98463.00
2019-04-03T14:57:35.907Z,98461.45
2019-04-03T15:00:25.123Z,98455.42
2019-04-03T15:02:46.930Z,98458.63
2019-04-03T15:05:20.823Z,98457.41
2019-04-03T15:07:55.296Z,98463.31
2019-04-03T15:10:30.626Z,98460.26
2019-04-03T15:13:04.254Z,98459.10
2019-04-03T15:15:37.955Z,98464.07
2019-04-03T15:18:12.031Z,98466.80
2019-04-03T15:20:48.691Z,98463.23
2019-04-03T15:23:20.925Z,98461.64
2019-04-03T15:25:54.984Z,98460.38
2019-04-03T15:28:30.567Z,98458.03
2019-04-03T15:31:03.649Z,98453.89
2019-04-03T15:33:37.442Z,98446.91
2019-04-03T15:36:11.326Z,98446.91
2019-04-03T15:38:46.264Z,98449.38
2019-04-03T15:41:28.642Z,98456.85
2019-04-03T15:44:01.913Z,98455.91
2019-04-03T15:46:36.065Z,98459.47
2019-04-03T15:49:10.018Z,98462.48
2019-04-03T15:51:44.217Z,98458.25
2019-04-03T15:54:18.499Z,98451.70
2019-04-03T15:56:52.996Z,98446.86
2019-04-03T15:59:29.017Z,98448.97
2019-04-03T16:02:04.927Z,98444.13
2019-04-03T16:04:39.737Z,98451.15
2019-04-03T16:07:14.935Z,98442.47
2019-04-03T16:13:17.574Z,98437.91
2019-04-03T16:15:54.411Z,98439.16
2019-04-03T16:18:26.568Z,98438.09
2019-04-03T16:21:00.426Z,98438.72
2019-04-03T16:23:36.301Z,98437.36
2019-04-03T16:26:29.161Z,98447.27
2019-04-03T16:29:04.083Z,98440.74
2019-04-03T16:31:39.561Z,98438.48
2019-04-03T16:34:13.110Z,98446.70
2019-04-03T16:36:49.718Z,98439.44
2019-04-03T16:39:23.584Z,98434.26
2019-04-03T16:41:57.276Z,98432.00
2019-04-03T16:44:31.192Z,98434.11
2019-04-03T16:47:05.020Z,98421.84
2019-04-03T16:49:38.601Z,98404.48
2019-04-03T16:52:12.727Z,98419.59
2019-04-03T16:54:46.496Z,98415.05
2019-04-03T16:57:22.204Z,98415.25
2019-04-03T16:59:55.415Z,98409.77
2019-04-03T17:02:29.950Z,98406.41
2019-04-03T17:05:03.828Z,98396.70
2019-04-03T17:07:38.149Z,98385.01
2019-04-03T17:10:12.576Z,98379.24
2019-04-03T17:12:48.001Z,98367.55
2019-04-03T17:15:22.309Z,98382.92
2019-04-03T17:17:56.015Z,98408.50
2019-04-03T17:20:29.776Z,98408.48
2019-04-03T17:23:03.396Z,98385.61
2019-04-03T17:25:45.887Z,98376.70
2019-04-03T17:28:11.553Z,98370.36
2019-04-03T17:30:45.183Z,98363.92
2019-04-03T17:33:18.917Z,98360.91
2019-04-03T17:35:52.429Z,98357.11
2019-04-03T17:38:26.188Z,98339.56
2019-04-03T17:41:00.068Z,98334.13
2019-04-03T17:43:34.816Z,98331.30
2019-04-03T17:46:15.804Z,98331.59
2019-04-03T17:48:49.094Z,98333.66
2019-04-03T17:51:22.934Z,98314.64
2019-04-03T17:53:56.319Z,98301.19
2019-04-03T17:56:31.452Z,98311.89
2019-04-03T17:59:05.017Z,98340.58
2019-04-03T18:01:40.963Z,98335.95
2019-04-03T18:04:14.666Z,98332.14
2019-04-03T18:06:48.455Z,98336.44
2019-04-03T18:09:22.144Z,98328.28
2019-04-03T18:11:57.845Z,98327.41
2019-04-03T18:14:30.343Z,98318.13
2019-04-03T18:17:03.772Z,98304.05
2019-04-03T18:19:38.054Z,98288.58
2019-04-03T18:22:12.923Z,98291.98
2019-04-03T18:24:46.601Z,98289.33
2019-04-03T18:27:20.369Z,98289.44
2019-04-03T18:29:54.302Z,98273.88
2019-04-03T18:32:29.771Z,98271.60
2019-04-03T18:35:06.793Z,98273.70
2019-04-03T18:37:40.913Z,98266.16
2019-04-03T18:40:16.106Z,98263.44
2019-04-03T18:42:50.189Z,98262.58
2019-04-03T18:45:25.445Z,98253.11
2019-04-03T18:48:00.286Z,98249.32
2019-04-03T18:50:35.251Z,98237.23
2019-04-03T18:53:12.393Z,98207.49
2019-04-03T18:55:46.107Z,98207.49
2019-04-03T18:58:19.738Z,98216.59
2019-04-03T19:00:55.175Z,98207.04
2019-04-03T19:03:28.809Z,98205.20
2019-04-03T19:06:03.825Z,98203.36
2019-04-03T19:08:38.582Z,98207.77
2019-04-03T19:11:26.688Z,98189.92
2019-04-03T19:14:27.095Z,98191.70
2019-04-03T19:16:54.684Z,98197.78
2019-04-03T19:19:28.561Z,98211.64
2019-04-03T19:22:02.041Z,98213.00
2019-04-03T19:24:37.148Z,98216.10
2019-04-03T19:27:10.554Z,98220.05
2019-04-03T19:29:44.109Z,98219.95
2019-04-03T19:32:17.828Z,98213.92
2019-04-03T19:34:52.395Z,98201.52
2019-04-03T19:37:26.108Z,98206.12
2019-04-03T19:40:01.366Z,98196.97
2019-04-03T19:42:34.510Z,98193.98
2019-04-03T19:45:12.630Z,98185.09
2019-04-03T19:47:44.516Z,98175.05
2019-04-03T19:50:18.606Z,98178.52
2019-04-03T19:52:53.196Z,98180.33
2019-04-03T19:55:26.995Z,98178.14
2019-04-03T19:58:00.897Z,98168.07
2019-04-03T20:00:34.970Z,98151.66
2019-04-03T20:03:16.150Z,98148.75
2019-04-03T20:05:59.521Z,98140.38
2019-04-03T20:08:30.670Z,98139.03
2019-04-03T20:11:05.168Z,98140.87
2019-04-03T20:13:39.891Z,98142.56
2019-04-03T20:16:13.879Z,98149.50
2019-04-03T20:18:47.791Z,98145.05
2019-04-03T20:21:21.347Z,98144.52
2019-04-03T20:23:54.872Z,98143.31
2019-04-03T20:26:28.582Z,98135.01
2019-04-03T20:29:02.447Z,98130.95
2019-04-03T20:31:36.385Z,98124.05
2019-04-03T20:34:12.828Z,98115.70
2019-04-03T20:36:44.927Z,98100.52
2019-04-03T20:39:18.473Z,98091.52
2019-04-03T20:41:52.287Z,98076.02
2019-04-03T20:44:25.710Z,98062.20
2019-04-03T20:46:59.358Z,98057.92
2019-04-03T20:49:33.829Z,98062.47
2019-04-03T20:52:10.680Z,98054.30
2019-04-03T20:54:42.491Z,98046.20
2019-04-03T20:57:15.935Z,98036.09
2019-04-03T20:59:58.740Z,98038.23
2019-04-03T21:02:25.707Z,98020.95
2019-04-03T21:04:59.445Z,98015.00
2019-04-03T21:07:32.925Z,98004.81
2019-04-03T21:10:07.951Z,97994.41
2019-04-03T21:12:41.407Z,97987.30
2019-04-03T21:15:15.642Z,97975.98
2019-04-03T21:17:50.058Z,97975.97
2019-04-03T21:20:24.337Z,97972.72
2019-04-03T21:22:58.131Z,97965.19
2019-04-03T21:25:31.768Z,97956.14
2019-04-03T21:28:06.258Z,97942.16
2019-04-03T21:30:41.502Z,97928.47
2019-04-03T21:33:17.150Z,97923.87
2019-04-03T21:35:49.845Z,97912.87
2019-04-03T21:38:23.672Z,97912.33
2019-04-03T21:40:57.115Z,97906.67
2019-04-03T21:43:30.870Z,97912.41
2019-04-03T21:46:11.735Z,97917.27
2019-04-03T21:48:45.260Z,97917.75
2019-04-03T21:51:20.659Z,97919.06
2019-04-03T21:53:55.959Z,97910.48
2019-04-03T21:56:47.907Z,97908.45
2019-04-03T21:59:21.103Z,97898.61
2019-04-03T22:01:55.597Z,97899.06
2019-04-03T22:04:29.297Z,97894.70
2019-04-03T22:07:03.073Z,97892.72
2019-04-03T22:09:37.126Z,97895.06
2019-04-03T22:12:10.845Z,97888.88
2019-04-03T22:14:44.659Z,97883.45
2019-04-03T22:17:21.623Z,97878.41
2019-04-03T22:19:53.407Z,97865.97
2019-04-03T22:22:26.945Z,97863.22
2019-04-03T22:25:00.567Z,97866.34
2019-04-03T22:27:36.934Z,97857.02
2019-04-03T22:30:11.022Z,97849.67
2019-04-03T22:32:44.870Z,97844.97
2019-04-03T22:35:18.063Z,97841.48
2019-04-03T22:37:53.177Z,97835.96
2019-04-03T22:40:26.734Z,97824.96
2019-04-03T22:43:00.362Z,97815.81
2019-04-03T22:45:35.445Z,97806.05
2019-04-03T22:48:09.238Z,97796.87
2019-04-03T22:50:42.948Z,97786.14
2019-04-03T22:53:17.118Z,97776.59
2019-04-03T22:55:51.899Z,97775.95
2019-04-03T22:58:25.746Z,97759.45
2019-04-03T23:01:00.749Z,97737.74
2019-04-03T23:03:34.761Z,97719.23
2019-04-03T23:06:08.588Z,97708.81
2019-04-03T23:08:42.280Z,97701.18
2019-04-03T23:11:17.441Z,97686.02
2019-04-03T23:13:50.996Z,97677.61
2019-04-03T23:16:24.529Z,97687.02
2019-04-03T23:18:58.797Z,97655.36
2019-04-03T23:21:33.927Z,97655.36
2019-04-03T23:24:07.250Z,97641.34
2019-04-03T23:26:40.634Z,97630.98
2019-04-03T23:29:14.259Z,97624.97
2019-04-03T23:31:47.769Z,97626.16
2019-04-03T23:34:21.414Z,97602.08
2019-04-03T23:36:56.839Z,97599.49
2019-04-03T23:39:31.696Z,97588.87
2019-04-03T23:42:06.989Z,97583.42
2019-04-03T23:44:42.072Z,97578.30
2019-04-03T23:47:16.568Z,97557.88
2019-04-03T23:49:51.172Z,97541.42
2019-04-03T23:52:25.273Z,97524.98
2019-04-03T23:54:58.759Z,97504.80
2019-04-03T23:57:32.548Z,97485.42
